createdAt,value
2023-03-30T00:00:50.853Z,11.30
2023-03-30T00:05:57.287Z,11.30
2023-03-30T00:11:13.648Z,11.40
2023-03-30T00:16:15.546Z,11.20
2023-03-30T00:21:18.601Z,11.10
2023-03-30T00:26:20.872Z,10.90
2023-03-30T00:31:22.978Z,10.80
2023-03-30T00:36:25.115Z,10.70
2023-03-30T00:41:28.023Z,11.00
2023-03-30T00:46:31.973Z,11.10
2023-03-30T00:51:37.953Z,11.50
2023-03-30T00:56:40.211Z,11.40
2023-03-30T01:01:42.309Z,11.60
2023-03-30T01:06:46.713Z,11.60
2023-03-30T01:11:48.860Z,11.50
2023-03-30T01:17:16.584Z,11.60
2023-03-30T01:22:47.529Z,11.70
2023-03-30T01:28:26.965Z,11.70
2023-03-30T01:34:17.632Z,11.30
2023-03-30T01:39:38.201Z,11.50
2023-03-30T01:44:46.523Z,11.50
2023-03-30T01:50:13.608Z,11.70
2023-03-30T01:55:32.507Z,11.70
2023-03-30T02:00:38.453Z,11.60
2023-03-30T02:05:42.776Z,11.90
2023-03-30T02:10:46.893Z,11.90
2023-03-30T02:15:53.011Z,12.00
2023-03-30T02:20:58.843Z,12.10
2023-03-30T02:26:01.112Z,12.20
2023-03-30T02:31:04.826Z,12.40
2023-03-30T02:36:24.411Z,11.90
2023-03-30T02:41:40.402Z,12.00
2023-03-30T02:47:09.728Z,12.20
2023-03-30T02:52:23.432Z,12.50
2023-03-30T02:57:36.783Z,12.70
2023-03-30T03:02:43.851Z,12.60
2023-03-30T03:07:45.996Z,11.30
2023-03-30T03:12:48.114Z,12.70
2023-03-30T03:17:51.753Z,12.60
2023-03-30T03:22:53.867Z,12.70
2023-03-30T03:27:56.038Z,12.70
2023-03-30T03:32:58.114Z,12.70
2023-03-30T03:38:00.252Z,12.70
2023-03-30T03:43:02.042Z,12.60
2023-03-30T03:48:03.857Z,12.50
2023-03-30T03:53:05.697Z,12.70
2023-03-30T03:58:07.997Z,12.60
2023-03-30T04:03:09.928Z,12.70
2023-03-30T04:08:11.977Z,12.80
2023-03-30T04:13:14.112Z,12.90
2023-03-30T04:18:16.324Z,12.70
2023-03-30T04:23:22.237Z,12.70
2023-03-30T04:28:24.958Z,12.80
2023-03-30T04:33:26.930Z,12.70
2023-03-30T04:38:30.329Z,12.70
2023-03-30T04:43:32.058Z,12.70
2023-03-30T04:48:34.067Z,12.60
2023-03-30T04:53:36.412Z,12.50
2023-03-30T04:58:38.114Z,12.50
2023-03-30T05:03:40.156Z,12.60
2023-03-30T05:08:42.105Z,12.50
2023-03-30T05:13:43.987Z,12.40
2023-03-30T05:18:45.948Z,12.40
2023-03-30T05:23:48.085Z,12.40
2023-03-30T05:28:50.713Z,12.40
2023-03-30T05:33:52.815Z,12.40
2023-03-30T05:38:54.614Z,12.40
2023-03-30T05:43:56.361Z,12.40
2023-03-30T05:48:58.400Z,12.50
2023-03-30T05:54:01.260Z,12.40
2023-03-30T05:59:05.442Z,12.70
2023-03-30T06:04:08.200Z,13.60
2023-03-30T06:09:11.515Z,12.50
2023-03-30T06:14:13.541Z,13.10
2023-03-30T06:19:15.604Z,12.30
2023-03-30T06:24:18.734Z,12.40
2023-03-30T06:29:20.926Z,12.70
2023-03-30T06:34:24.051Z,13.10
2023-03-30T06:39:26.208Z,13.00
2023-03-30T06:44:28.088Z,12.90
2023-03-30T06:49:31.020Z,12.80
2023-03-30T06:54:33.071Z,13.00
2023-03-30T06:59:36.183Z,13.00
2023-03-30T07:09:40.809Z,13.00
2023-03-30T07:14:42.594Z,13.30
2023-03-30T07:19:44.387Z,14.80
2023-03-30T07:24:46.075Z,13.20
2023-03-30T07:34:50.362Z,13.10
2023-03-30T07:39:52.487Z,13.00
2023-03-30T07:44:54.484Z,13.00
2023-03-30T07:49:56.420Z,13.00
2023-03-30T07:54:58.555Z,13.20
2023-03-30T08:00:00.638Z,12.80
2023-03-30T08:05:02.994Z,12.80
2023-03-30T08:10:05.518Z,12.80
2023-03-30T08:15:08.431Z,12.80
2023-03-30T08:20:11.738Z,12.80
2023-03-30T08:25:13.756Z,12.70
2023-03-30T08:30:16.598Z,12.90
2023-03-30T08:35:18.383Z,12.90
2023-03-30T08:45:23.521Z,13.00
2023-03-30T08:50:31.979Z,12.90
2023-03-30T08:55:57.226Z,12.80
2023-03-30T09:01:18.176Z,12.80
2023-03-30T09:06:35.066Z,12.80
2023-03-30T09:11:38.806Z,13.00
2023-03-30T09:16:54.174Z,13.30
2023-03-30T09:21:58.050Z,13.10
2023-03-30T09:27:29.146Z,13.10
2023-03-30T09:32:45.493Z,13.20
2023-03-30T09:37:47.532Z,13.20
2023-03-30T09:43:47.922Z,13.20
2023-03-30T09:54:02.447Z,13.20
2023-03-30T09:59:37.980Z,13.40
2023-03-30T10:04:56.934Z,13.60
2023-03-30T10:10:14.197Z,14.30
2023-03-30T10:15:18.281Z,14.20
2023-03-30T10:21:01.781Z,14.20
2023-03-30T10:26:04.803Z,13.80
2023-03-30T10:31:16.420Z,13.70
2023-03-30T10:36:19.551Z,13.70
2023-03-30T10:41:23.839Z,13.70
2023-03-30T10:46:25.731Z,13.50
2023-03-30T10:51:44.324Z,13.50
2023-03-30T10:56:51.933Z,13.30
2023-03-30T11:02:13.486Z,13.20
2023-03-30T11:07:30.037Z,13.20
2023-03-30T11:12:39.474Z,13.20
2023-03-30T11:18:03.775Z,13.20
2023-03-30T11:23:14.727Z,13.40
2023-03-30T11:28:23.707Z,13.50
2023-03-30T11:34:00.877Z,13.50
2023-03-30T11:39:04.808Z,13.60
2023-03-30T11:44:10.889Z,13.80
2023-03-30T11:49:43.481Z,13.70
2023-03-30T11:55:03.609Z,13.70
2023-03-30T12:00:35.983Z,13.90
2023-03-30T12:05:44.465Z,14.50
2023-03-30T12:10:51.639Z,14.30
2023-03-30T12:15:53.975Z,14.30
2023-03-30T12:21:13.148Z,14.10
2023-03-30T12:26:34.664Z,14.10
2023-03-30T12:31:55.906Z,14.00
2023-03-30T12:37:16.097Z,14.20
2023-03-30T12:42:35.143Z,14.20
2023-03-30T12:47:58.990Z,14.50
2023-03-30T12:53:30.685Z,15.80
2023-03-30T12:59:06.856Z,15.50
2023-03-30T13:04:24.034Z,15.50
2023-03-30T13:09:26.854Z,15.30
2023-03-30T13:14:46.527Z,15.10
2023-03-30T13:20:31.022Z,15.10
2023-03-30T13:25:39.512Z,15.00
2023-03-30T13:30:44.998Z,14.90
2023-03-30T13:36:04.552Z,15.10
2023-03-30T13:41:12.776Z,15.00
2023-03-30T13:46:22.796Z,15.30
2023-03-30T13:51:27.928Z,15.10
2023-03-30T13:56:36.015Z,15.30
2023-03-30T14:01:40.316Z,15.80
2023-03-30T14:06:50.033Z,15.90
2023-03-30T14:12:00.859Z,15.20
2023-03-30T14:17:13.256Z,14.50
2023-03-30T14:22:28.679Z,14.40
2023-03-30T14:27:40.942Z,13.50
2023-03-30T14:32:43.803Z,12.80
2023-03-30T14:37:51.795Z,12.80
2023-03-30T14:42:54.089Z,12.70
2023-03-30T14:47:56.565Z,12.70
2023-03-30T14:52:58.782Z,13.20
2023-03-30T14:58:01.632Z,13.30
2023-03-30T15:03:05.190Z,13.10
2023-03-30T15:08:16.802Z,15.40
2023-03-30T15:13:32.609Z,12.80
2023-03-30T15:18:36.913Z,12.50
2023-03-30T15:23:41.979Z,12.50
2023-03-30T15:28:47.998Z,13.10
2023-03-30T15:33:55.142Z,14.40
2023-03-30T15:39:01.509Z,15.30
2023-03-30T15:44:17.342Z,15.50
2023-03-30T15:49:23.331Z,15.40
2023-03-30T15:54:45.242Z,15.80
2023-03-30T15:59:51.712Z,16.10
2023-03-30T16:04:54.984Z,16.40
2023-03-30T16:14:59.627Z,14.70
2023-03-30T16:20:02.591Z,14.90
2023-03-30T16:25:05.982Z,15.30
2023-03-30T16:30:17.841Z,15.00
2023-03-30T16:35:20.024Z,14.70
2023-03-30T16:40:27.736Z,14.70
2023-03-30T16:45:30.092Z,14.60
2023-03-30T16:50:46.512Z,14.40
2023-03-30T16:55:48.885Z,14.00
2023-03-30T17:00:53.800Z,13.90
2023-03-30T17:05:56.194Z,13.60
2023-03-30T17:11:01.669Z,13.60
2023-03-30T17:16:03.480Z,13.50
2023-03-30T17:21:06.729Z,13.40
2023-03-30T17:26:15.189Z,13.30
2023-03-30T17:31:22.321Z,13.10
2023-03-30T17:36:26.157Z,13.10
2023-03-30T17:41:27.922Z,13.00
2023-03-30T17:46:30.645Z,12.90
2023-03-30T17:51:32.596Z,12.90
2023-03-30T17:56:34.717Z,12.80
2023-03-30T18:01:36.495Z,12.70
2023-03-30T18:06:38.635Z,12.70
2023-03-30T18:11:40.733Z,12.70
2023-03-30T18:16:43.780Z,12.70
2023-03-30T18:21:45.914Z,12.60
2023-03-30T18:26:47.642Z,12.70
2023-03-30T18:31:49.915Z,12.70
2023-03-30T18:36:52.311Z,12.70
2023-03-30T18:41:54.568Z,11.20
2023-03-30T18:46:56.737Z,12.70
2023-03-30T18:51:58.659Z,12.60
2023-03-30T18:57:00.783Z,12.60
2023-03-30T19:02:02.950Z,12.50
2023-03-30T19:07:05.725Z,12.40
2023-03-30T19:12:11.631Z,12.30
2023-03-30T19:17:15.912Z,12.30
2023-03-30T19:22:17.911Z,12.20
2023-03-30T19:27:19.935Z,12.10
2023-03-30T19:32:21.769Z,12.00
2023-03-30T19:37:23.878Z,11.90
2023-03-30T19:42:26.681Z,11.80
2023-03-30T19:47:30.865Z,11.80
2023-03-30T19:52:32.827Z,11.70
2023-03-30T19:57:37.975Z,11.70
2023-03-30T20:02:41.277Z,11.60
2023-03-30T20:07:44.639Z,11.60
2023-03-30T20:12:47.800Z,11.60
2023-03-30T20:17:49.971Z,11.60
2023-03-30T20:22:54.012Z,11.50
2023-03-30T20:27:55.781Z,11.50
2023-03-30T20:33:07.414Z,11.60
2023-03-30T20:38:10.413Z,11.60
2023-03-30T20:43:12.431Z,11.40
2023-03-30T20:48:27.703Z,11.40
2023-03-30T20:53:30.965Z,11.20
2023-03-30T20:58:33.075Z,10.80
2023-03-30T21:03:35.390Z,10.60
2023-03-30T21:08:37.286Z,10.40
2023-03-30T21:13:39.164Z,10.30
2023-03-30T21:18:40.965Z,10.30
2023-03-30T21:23:44.299Z,10.20
2023-03-30T21:28:46.891Z,10.10
2023-03-30T21:33:49.026Z,10.40
2023-03-30T21:38:51.064Z,10.40
2023-03-30T21:43:53.110Z,10.10
2023-03-30T21:48:54.934Z,9.70
2023-03-30T21:53:57.961Z,9.80
2023-03-30T21:59:00.595Z,9.80
2023-03-30T22:04:05.483Z,9.90
2023-03-30T22:09:08.108Z,9.90
2023-03-30T22:14:10.204Z,9.70
2023-03-30T22:19:12.216Z,9.70
2023-03-30T22:24:14.074Z,9.50
2023-03-30T22:29:16.289Z,9.50
2023-03-30T22:34:18.452Z,9.70
2023-03-30T22:39:20.098Z,10.10
2023-03-30T22:44:22.375Z,9.70
2023-03-30T22:49:25.073Z,9.60
2023-03-30T22:54:26.761Z,9.30
2023-03-30T22:59:30.877Z,9.50
2023-03-30T23:04:34.473Z,9.50
2023-03-30T23:09:37.291Z,9.60
2023-03-30T23:14:39.369Z,9.60
2023-03-30T23:19:41.177Z,9.60
2023-03-30T23:24:43.513Z,9.50
2023-03-30T23:29:45.784Z,9.50
2023-03-30T23:34:47.625Z,9.70
2023-03-30T23:39:49.795Z,9.70
2023-03-30T23:44:52.279Z,9.50
2023-03-30T23:49:54.444Z,9.50
2023-03-30T23:55:02.135Z,9.50
